createdAt,value
2018-08-03T00:00:15.963Z,9.73
2018-08-03T00:02:45.868Z,8.77
2018-08-03T00:05:15.843Z,8.40
2018-08-03T00:07:45.384Z,8.80
2018-08-03T00:10:14.327Z,9.67
2018-08-03T00:12:44.049Z,11.07
2018-08-03T00:15:12.969Z,11.17
2018-08-03T00:17:41.473Z,12.50
2018-08-03T00:20:10.399Z,11.63
2018-08-03T00:22:39.344Z,12.60
2018-08-03T00:25:08.918Z,13.70
2018-08-03T00:27:37.861Z,15.20
2018-08-03T00:30:08.310Z,13.33
2018-08-03T00:32:37.754Z,13.20
2018-08-03T00:35:06.235Z,11.50
2018-08-03T00:37:35.334Z,12.37
2018-08-03T00:40:03.876Z,12.33
2018-08-03T00:42:32.811Z,13.00
2018-08-03T00:45:01.698Z,13.03
2018-08-03T00:47:30.179Z,12.77
2018-08-03T00:49:58.699Z,15.03
2018-08-03T00:52:28.897Z,15.47
2018-08-03T00:54:57.857Z,13.47
2018-08-03T00:57:26.749Z,13.17
2018-08-03T00:59:55.628Z,12.53
2018-08-03T01:02:24.596Z,14.33
2018-08-03T01:04:53.554Z,12.00
2018-08-03T01:07:22.526Z,12.73
2018-08-03T01:09:51.209Z,12.87
2018-08-03T01:12:19.691Z,14.60
2018-08-03T01:14:48.859Z,14.73
2018-08-03T01:17:18.167Z,13.10
2018-08-03T01:19:46.736Z,14.17
2018-08-03T01:22:15.708Z,13.83
2018-08-03T01:24:44.925Z,12.13
2018-08-03T01:27:14.360Z,13.47
2018-08-03T01:29:42.939Z,12.43
2018-08-03T01:32:11.769Z,11.97
2018-08-03T01:34:40.659Z,12.20
2018-08-03T01:37:09.597Z,13.07
2018-08-03T01:39:39.214Z,12.27
2018-08-03T01:42:07.727Z,12.03
2018-08-03T01:44:36.667Z,12.83
2018-08-03T01:47:05.584Z,14.87
2018-08-03T01:49:35.360Z,13.43
2018-08-03T01:52:04.283Z,14.93
2018-08-03T01:54:32.783Z,12.40
2018-08-03T01:57:01.756Z,12.97
2018-08-03T01:59:30.312Z,12.53
2018-08-03T02:01:59.296Z,12.80
2018-08-03T02:04:28.178Z,19.20
2018-08-03T02:06:57.136Z,14.43
2018-08-03T02:09:26.057Z,16.00
2018-08-03T02:11:54.928Z,12.47
2018-08-03T02:14:24.900Z,12.67
2018-08-03T02:16:54.568Z,23.70
2018-08-03T02:19:24.188Z,18.53
2018-08-03T02:21:53.152Z,16.07
2018-08-03T02:24:22.028Z,12.37
2018-08-03T02:26:50.966Z,13.57
2018-08-03T02:29:19.884Z,11.67
2018-08-03T02:31:48.802Z,14.03
2018-08-03T02:34:17.804Z,12.77
2018-08-03T02:36:46.777Z,13.20
2018-08-03T02:39:15.661Z,15.63
2018-08-03T02:41:44.562Z,15.43
2018-08-03T02:44:13.546Z,14.00
2018-08-03T02:46:42.572Z,13.80
2018-08-03T02:49:12.355Z,13.87
2018-08-03T02:51:41.350Z,12.83
2018-08-03T02:54:11.163Z,19.33
2018-08-03T02:56:40.112Z,16.43
2018-08-03T02:59:10.055Z,18.10
2018-08-03T03:01:39.623Z,18.03
2018-08-03T03:04:08.749Z,13.83
2018-08-03T03:06:38.197Z,14.03
2018-08-03T03:09:09.655Z,13.67
2018-08-03T03:11:38.643Z,13.97
2018-08-03T03:14:07.873Z,23.23
2018-08-03T03:16:37.539Z,21.53
2018-08-03T03:19:06.454Z,13.57
2018-08-03T03:21:35.943Z,13.87
2018-08-03T03:24:05.566Z,13.23
2018-08-03T03:26:34.503Z,14.10
2018-08-03T03:29:03.474Z,14.20
2018-08-03T03:31:33.129Z,15.20
2018-08-03T03:34:02.506Z,13.80
2018-08-03T03:36:31.422Z,15.20
2018-08-03T03:39:00.285Z,15.03
2018-08-03T03:41:29.199Z,17.33
2018-08-03T03:43:58.129Z,16.07
2018-08-03T03:46:27.822Z,16.67
2018-08-03T03:48:56.726Z,19.00
2018-08-03T03:51:25.621Z,17.50
2018-08-03T03:53:54.549Z,15.47
2018-08-03T03:56:23.466Z,17.60
2018-08-03T03:58:52.469Z,15.07
2018-08-03T04:01:21.417Z,14.67
2018-08-03T04:03:49.988Z,13.93
2018-08-03T04:06:18.866Z,15.63
2018-08-03T04:08:47.765Z,16.30
2018-08-03T04:11:16.680Z,17.40
2018-08-03T04:13:45.610Z,15.13
2018-08-03T04:16:14.538Z,14.77
2018-08-03T04:18:43.053Z,14.30
2018-08-03T04:21:11.949Z,14.57
2018-08-03T04:23:40.804Z,19.97
2018-08-03T04:26:09.338Z,18.10
2018-08-03T04:28:38.224Z,14.87
2018-08-03T04:31:08.236Z,15.60
2018-08-03T04:33:37.140Z,15.27
2018-08-03T04:36:06.069Z,19.23
2018-08-03T04:38:34.623Z,14.47
2018-08-03T04:41:03.503Z,13.63
2018-08-03T04:43:32.353Z,15.37
2018-08-03T04:46:01.228Z,13.23
2018-08-03T04:48:29.725Z,11.53
2018-08-03T04:50:59.252Z,12.57
2018-08-03T04:53:28.151Z,12.53
2018-08-03T04:55:57.025Z,13.83
2018-08-03T04:58:25.907Z,17.03
2018-08-03T05:00:54.821Z,13.60
2018-08-03T05:03:24.614Z,15.27
2018-08-03T05:05:54.392Z,17.27
2018-08-03T05:08:22.878Z,13.93
2018-08-03T05:10:51.356Z,15.00
2018-08-03T05:13:19.827Z,16.90
2018-08-03T05:15:48.352Z,17.70
2018-08-03T05:18:17.279Z,21.13
2018-08-03T05:20:46.894Z,17.07
2018-08-03T05:23:16.409Z,17.70
2018-08-03T05:25:45.410Z,15.43
2018-08-03T05:28:14.347Z,17.80
2018-08-03T05:30:43.284Z,21.90
2018-08-03T05:33:12.239Z,20.73
2018-08-03T05:35:41.226Z,20.50
2018-08-03T05:38:10.404Z,23.30
2018-08-03T05:40:39.352Z,24.33
2018-08-03T05:43:08.303Z,23.87
2018-08-03T05:45:37.571Z,31.33
2018-08-03T05:48:06.457Z,30.50
2018-08-03T05:50:36.488Z,26.40
2018-08-03T05:53:06.214Z,25.07
2018-08-03T05:55:35.135Z,22.67
2018-08-03T05:58:04.081Z,22.73
2018-08-03T06:00:33.039Z,22.10
2018-08-03T06:03:01.542Z,23.87
2018-08-03T06:05:31.032Z,19.33
2018-08-03T06:08:00.299Z,20.13
2018-08-03T06:10:29.364Z,22.93
2018-08-03T06:12:58.290Z,20.93
2018-08-03T06:15:27.240Z,25.73
2018-08-03T06:17:56.830Z,20.67
2018-08-03T06:20:26.628Z,19.83
2018-08-03T06:22:56.177Z,22.47
2018-08-03T06:25:25.547Z,18.63
2018-08-03T06:27:55.094Z,17.63
2018-08-03T06:30:26.217Z,19.00
2018-08-03T06:32:55.603Z,17.57
2018-08-03T06:35:25.281Z,18.97
2018-08-03T06:37:55.104Z,19.60
2018-08-03T06:40:23.945Z,20.23
2018-08-03T06:42:52.891Z,18.20
2018-08-03T06:45:21.883Z,18.57
2018-08-03T06:47:50.804Z,19.70
2018-08-03T06:50:20.172Z,21.70
2018-08-03T06:52:50.169Z,22.80
2018-08-03T06:55:19.699Z,17.90
2018-08-03T06:57:48.572Z,17.33
2018-08-03T07:00:17.387Z,17.23
2018-08-03T07:02:47.699Z,16.77
2018-08-03T07:05:16.985Z,18.43
2018-08-03T07:07:45.520Z,20.37
2018-08-03T07:10:14.463Z,16.97
2018-08-03T07:12:43.398Z,15.50
2018-08-03T07:15:12.937Z,15.77
2018-08-03T07:17:42.731Z,16.83
2018-08-03T07:20:12.410Z,17.90
2018-08-03T07:22:41.356Z,15.60
2018-08-03T07:25:10.855Z,15.43
2018-08-03T07:27:39.740Z,14.47
2018-08-03T07:30:08.694Z,20.30
2018-08-03T07:32:37.618Z,17.80
2018-08-03T07:35:06.592Z,15.07
2018-08-03T07:37:35.478Z,14.03
2018-08-03T07:40:04.655Z,12.67
2018-08-03T07:42:34.461Z,12.80
2018-08-03T07:45:04.336Z,12.70
2018-08-03T07:47:33.499Z,12.37
2018-08-03T07:50:02.423Z,13.67
2018-08-03T07:52:31.351Z,12.80
2018-08-03T07:55:00.273Z,12.50
2018-08-03T07:57:30.219Z,13.17
2018-08-03T07:59:59.572Z,15.47
2018-08-03T08:02:29.140Z,17.40
2018-08-03T08:04:58.158Z,17.57
2018-08-03T08:07:27.625Z,13.33
2018-08-03T08:09:57.004Z,13.10
2018-08-03T08:12:26.287Z,12.93
2018-08-03T08:14:55.275Z,16.30
2018-08-03T08:17:24.168Z,12.43
2018-08-03T08:19:53.094Z,13.47
2018-08-03T08:22:22.083Z,12.97
2018-08-03T08:24:51.889Z,13.40
2018-08-03T08:27:21.429Z,12.20
2018-08-03T08:29:50.918Z,12.17
2018-08-03T08:32:19.873Z,12.93
2018-08-03T08:34:49.556Z,12.70
2018-08-03T08:37:18.985Z,12.10
2018-08-03T08:39:48.175Z,11.67
2018-08-03T08:42:17.101Z,13.37
2018-08-03T08:44:46.093Z,12.00
2018-08-03T08:47:15.044Z,11.90
2018-08-03T08:49:44.960Z,12.80
2018-08-03T08:52:14.513Z,12.60
2018-08-03T08:54:43.984Z,12.33
2018-08-03T08:57:13.894Z,12.77
2018-08-03T08:59:42.850Z,14.27
2018-08-03T09:02:12.699Z,14.20
2018-08-03T09:04:42.365Z,14.77
2018-08-03T09:07:11.274Z,13.07
2018-08-03T09:09:40.154Z,13.23
2018-08-03T09:12:09.074Z,13.90
2018-08-03T09:14:38.001Z,13.83
2018-08-03T09:17:08.013Z,13.33
2018-08-03T09:19:36.509Z,14.00
2018-08-03T09:22:05.030Z,12.63
2018-08-03T09:24:33.964Z,13.60
2018-08-03T09:27:03.502Z,12.07
2018-08-03T09:29:33.089Z,12.97
2018-08-03T09:32:02.579Z,14.17
2018-08-03T09:34:31.489Z,13.10
2018-08-03T09:37:00.498Z,14.70
2018-08-03T09:39:29.409Z,15.13
2018-08-03T09:41:58.313Z,15.73
2018-08-03T09:44:27.186Z,15.43
2018-08-03T09:46:56.128Z,16.77
2018-08-03T09:49:25.797Z,15.90
2018-08-03T09:51:54.789Z,15.87
2018-08-03T09:54:24.447Z,15.97
2018-08-03T09:56:53.350Z,16.30
2018-08-03T09:59:22.389Z,15.77
2018-08-03T10:01:51.452Z,16.00
2018-08-03T10:04:19.928Z,16.17
2018-08-03T10:06:49.547Z,17.10
2018-08-03T10:09:19.405Z,15.37
2018-08-03T10:11:49.134Z,15.43
2018-08-03T10:14:19.019Z,15.27
2018-08-03T10:16:48.881Z,13.63
2018-08-03T10:19:17.779Z,12.73
2018-08-03T10:21:46.720Z,13.20
2018-08-03T10:24:15.644Z,13.37
2018-08-03T10:26:45.010Z,12.87
2018-08-03T10:29:14.479Z,13.10
2018-08-03T10:31:44.117Z,11.90
2018-08-03T10:34:13.045Z,11.17
2018-08-03T10:36:42.385Z,11.00
2018-08-03T10:39:11.892Z,11.37
2018-08-03T10:41:41.252Z,10.83
2018-08-03T10:44:11.171Z,11.87
2018-08-03T10:46:40.090Z,11.00
2018-08-03T10:49:09.017Z,12.50
2018-08-03T10:51:38.052Z,11.23
2018-08-03T10:54:06.992Z,11.03
2018-08-03T10:56:35.961Z,11.17
2018-08-03T10:59:05.670Z,12.73
2018-08-03T11:01:35.192Z,10.77
2018-08-03T11:04:04.489Z,10.60
2018-08-03T11:06:34.145Z,11.03
2018-08-03T11:09:03.335Z,11.47
2018-08-03T11:11:32.169Z,11.12
2018-08-03T11:14:01.149Z,11.00
2018-08-03T11:16:30.017Z,10.47
2018-08-03T11:18:58.934Z,10.93
2018-08-03T11:21:27.841Z,10.00
2018-08-03T11:23:56.765Z,12.95
2018-08-03T11:26:25.310Z,13.75
2018-08-03T11:28:54.810Z,11.95
2018-08-03T11:31:24.668Z,11.95
2018-08-03T11:33:53.155Z,10.28
2018-08-03T11:36:21.910Z,15.28
2018-08-03T11:38:50.860Z,10.98
2018-08-03T11:41:19.789Z,10.68
2018-08-03T11:43:48.729Z,13.78
2018-08-03T11:46:17.660Z,31.52
2018-08-03T11:48:47.185Z,18.57
2018-08-03T11:51:16.139Z,16.65
2018-08-03T11:53:46.056Z,14.63
2018-08-03T11:56:15.542Z,10.15
2018-08-03T11:58:45.440Z,10.18
2018-08-03T12:01:14.749Z,10.95
2018-08-03T12:03:44.432Z,10.13
2018-08-03T12:06:12.889Z,10.48
2018-08-03T12:08:43.657Z,11.50
2018-08-03T12:11:12.565Z,11.08
2018-08-03T12:13:41.457Z,11.95
2018-08-03T12:16:10.383Z,12.80
2018-08-03T12:18:39.346Z,9.08
2018-08-03T12:21:08.265Z,10.20
2018-08-03T12:23:37.230Z,10.03
2018-08-03T12:26:06.077Z,11.77
2018-08-03T12:28:35.776Z,9.50
2018-08-03T12:31:04.684Z,9.83
2018-08-03T12:33:33.162Z,10.83
2018-08-03T12:36:02.206Z,7.80
2018-08-03T12:38:32.082Z,6.50
2018-08-03T12:41:00.989Z,5.60
2018-08-03T12:43:29.923Z,7.03
2018-08-03T12:45:58.878Z,7.90
2018-08-03T12:48:27.803Z,8.93
2018-08-03T12:50:56.734Z,6.80
2018-08-03T12:53:25.209Z,7.50
2018-08-03T12:55:54.465Z,6.87
2018-08-03T12:58:23.380Z,7.23
2018-08-03T13:00:52.715Z,8.13
2018-08-03T13:03:21.654Z,16.03
2018-08-03T13:05:50.620Z,6.80
2018-08-03T13:08:19.759Z,7.80
2018-08-03T13:10:48.600Z,6.97
2018-08-03T13:13:18.397Z,9.07
2018-08-03T13:15:47.779Z,8.43
2018-08-03T13:18:17.212Z,7.90
2018-08-03T13:20:47.092Z,10.20
2018-08-03T13:23:15.579Z,8.90
2018-08-03T13:25:45.537Z,8.27
2018-08-03T13:28:14.880Z,12.17
2018-08-03T13:30:43.948Z,8.53
2018-08-03T13:33:12.971Z,8.93
2018-08-03T13:35:41.925Z,9.77
2018-08-03T13:38:12.916Z,9.53
2018-08-03T13:40:42.239Z,12.43
2018-08-03T13:43:11.623Z,14.00
2018-08-03T13:45:40.600Z,9.30
2018-08-03T13:48:09.071Z,8.70
2018-08-03T13:50:39.415Z,8.73
2018-08-03T13:53:09.317Z,8.87
2018-08-03T13:55:38.548Z,8.30
2018-08-03T13:58:07.912Z,8.17
2018-08-03T14:00:36.499Z,7.63
2018-08-03T14:03:05.113Z,8.10
2018-08-03T14:05:33.996Z,8.20
2018-08-03T14:08:02.911Z,7.83
2018-08-03T14:10:31.844Z,8.80
2018-08-03T14:13:01.843Z,14.30
2018-08-03T14:15:31.718Z,11.93
2018-08-03T14:18:01.395Z,9.97
2018-08-03T14:20:30.306Z,11.57
2018-08-03T14:22:59.952Z,9.00
2018-08-03T14:25:28.938Z,9.20
2018-08-03T14:27:58.681Z,9.23
2018-08-03T14:30:28.595Z,10.23
2018-08-03T14:32:57.535Z,10.13
2018-08-03T14:35:26.478Z,9.20
2018-08-03T14:37:56.605Z,9.17
2018-08-03T14:40:25.110Z,10.03
2018-08-03T14:42:54.041Z,10.20
2018-08-03T14:45:23.374Z,9.37
2018-08-03T14:47:52.335Z,10.30
2018-08-03T14:50:22.075Z,9.53
2018-08-03T14:52:51.962Z,9.13
2018-08-03T14:55:22.017Z,8.60
2018-08-03T14:57:50.544Z,8.63
2018-08-03T15:00:19.539Z,9.63
2018-08-03T15:02:48.502Z,9.17
2018-08-03T15:05:17.444Z,8.37
2018-08-03T15:07:46.461Z,9.13
2018-08-03T15:10:15.968Z,9.20
2018-08-03T15:12:44.861Z,9.90
2018-08-03T15:15:13.395Z,9.90
2018-08-03T15:17:42.283Z,9.00
2018-08-03T15:20:11.279Z,8.83
2018-08-03T15:22:40.604Z,8.70
2018-08-03T15:25:09.606Z,9.40
2018-08-03T15:27:38.578Z,8.40
2018-08-03T15:30:09.058Z,8.37
2018-08-03T15:32:38.916Z,8.80
2018-08-03T15:35:08.680Z,8.83
2018-08-03T15:37:38.414Z,8.43
2018-08-03T15:40:08.095Z,9.53
2018-08-03T15:42:37.072Z,8.57
2018-08-03T15:45:06.424Z,8.97
2018-08-03T15:47:35.322Z,9.00
2018-08-03T15:50:04.854Z,8.93
2018-08-03T15:52:33.762Z,10.27
2018-08-03T15:55:02.332Z,10.13
2018-08-03T15:57:31.356Z,9.93
2018-08-03T16:00:00.264Z,10.83
2018-08-03T16:02:29.162Z,9.40
2018-08-03T16:04:58.077Z,9.37
2018-08-03T16:07:27.068Z,9.63
2018-08-03T16:09:55.996Z,9.63
2018-08-03T16:12:24.933Z,9.70
2018-08-03T16:14:53.915Z,9.93
2018-08-03T16:17:22.907Z,11.43
2018-08-03T16:19:51.843Z,11.07
2018-08-03T16:22:21.463Z,10.80
2018-08-03T16:24:50.260Z,10.33
2018-08-03T16:27:19.296Z,10.63
2018-08-03T16:29:48.587Z,10.75
2018-08-03T16:32:17.516Z,9.30
2018-08-03T16:34:46.414Z,9.70
2018-08-03T16:37:15.310Z,9.80
2018-08-03T16:39:43.773Z,10.03
2018-08-03T16:42:12.676Z,10.40
2018-08-03T16:44:41.223Z,9.40
2018-08-03T16:47:10.280Z,9.68
2018-08-03T16:49:39.306Z,10.23
2018-08-03T16:52:09.281Z,8.93
2018-08-03T16:54:38.239Z,9.03
2018-08-03T16:57:07.210Z,9.67
2018-08-03T16:59:36.124Z,9.20
2018-08-03T17:02:05.090Z,9.63
2018-08-03T17:04:34.600Z,9.47
2018-08-03T17:07:04.204Z,9.17
2018-08-03T17:09:33.108Z,9.65
2018-08-03T17:12:02.049Z,9.18
2018-08-03T17:14:30.953Z,9.25
2018-08-03T17:16:59.912Z,8.88
2018-08-03T17:19:28.416Z,9.70
2018-08-03T17:21:58.296Z,11.83
2018-08-03T17:24:26.775Z,9.73
2018-08-03T17:26:56.115Z,10.43
2018-08-03T17:29:25.109Z,9.43
2018-08-03T17:31:54.210Z,9.50
2018-08-03T17:34:23.161Z,10.13
2018-08-03T17:36:51.693Z,10.23
2018-08-03T17:39:20.617Z,9.78
2018-08-03T17:41:49.856Z,8.77
2018-08-03T17:44:18.781Z,9.05
2018-08-03T17:46:48.807Z,9.70
2018-08-03T17:49:18.769Z,11.33
2018-08-03T17:51:48.032Z,8.33
2018-08-03T17:54:17.019Z,8.87
2018-08-03T17:56:46.159Z,8.97
2018-08-03T17:59:15.116Z,8.33
2018-08-03T18:01:44.029Z,7.83
2018-08-03T18:04:12.531Z,8.80
2018-08-03T18:06:42.352Z,9.40
2018-08-03T18:09:12.118Z,8.73
2018-08-03T18:11:41.502Z,9.73
2018-08-03T18:14:11.072Z,9.40
2018-08-03T18:16:41.009Z,9.70
2018-08-03T18:19:10.910Z,8.93
2018-08-03T18:21:40.503Z,8.87
2018-08-03T18:24:10.354Z,9.93
2018-08-03T18:26:39.411Z,10.07
2018-08-03T18:29:08.514Z,9.37
2018-08-03T18:31:37.465Z,9.73
2018-08-03T18:34:06.075Z,10.93
2018-08-03T18:36:35.305Z,10.07
2018-08-03T18:39:04.640Z,12.30
2018-08-03T18:41:34.163Z,11.80
2018-08-03T18:44:04.438Z,13.50
2018-08-03T18:46:33.621Z,9.80
2018-08-03T18:49:03.044Z,9.83
2018-08-03T18:51:31.946Z,9.53
2018-08-03T18:54:02.985Z,9.77
2018-08-03T18:56:32.846Z,10.23
2018-08-03T18:59:02.683Z,9.43
2018-08-03T19:01:32.485Z,10.23
2018-08-03T19:04:01.397Z,49.33
2018-08-03T19:06:31.055Z,34.63
2018-08-03T19:08:59.994Z,13.63
2018-08-03T19:11:28.960Z,25.77
2018-08-03T19:13:58.171Z,23.43
2018-08-03T19:16:28.125Z,58.53
2018-08-03T19:18:56.643Z,73.10
2018-08-03T19:21:26.429Z,101.57
2018-08-03T19:23:55.748Z,106.53
2018-08-03T19:26:25.261Z,19.30
2018-08-03T19:28:54.484Z,14.73
2018-08-03T19:31:24.064Z,12.67
2018-08-03T19:33:52.980Z,10.20
2018-08-03T19:36:22.017Z,10.53
2018-08-03T19:38:51.879Z,11.00
2018-08-03T19:41:20.855Z,11.47
2018-08-03T19:43:50.777Z,11.97
2018-08-03T19:46:20.526Z,10.97
2018-08-03T19:48:49.886Z,10.60
2018-08-03T19:51:18.878Z,11.37
2018-08-03T19:53:47.987Z,11.87
2018-08-03T19:56:16.919Z,10.27
2018-08-03T19:58:45.517Z,10.10
2018-08-03T20:01:15.374Z,10.87
2018-08-03T20:03:45.016Z,11.00
2018-08-03T20:06:14.663Z,10.80
2018-08-03T20:08:44.471Z,10.87
2018-08-03T20:11:13.386Z,10.07
2018-08-03T20:13:43.366Z,11.80
2018-08-03T20:16:12.361Z,11.17
2018-08-03T20:18:41.248Z,11.17
2018-08-03T20:21:10.194Z,10.70
2018-08-03T20:23:40.584Z,10.70
2018-08-03T20:26:10.841Z,11.50
2018-08-03T20:28:39.995Z,11.20
2018-08-03T20:31:09.029Z,12.03
2018-08-03T20:33:39.252Z,16.23
2018-08-03T20:36:09.220Z,16.70
2018-08-03T20:38:38.147Z,15.07
2018-08-03T20:41:08.560Z,16.80
2018-08-03T20:43:37.963Z,12.50
2018-08-03T20:46:06.980Z,12.07
2018-08-03T20:48:36.885Z,11.70
2018-08-03T20:51:06.122Z,13.83
2018-08-03T20:53:34.661Z,10.97
2018-08-03T20:56:03.623Z,11.43
2018-08-03T20:58:32.923Z,11.50
2018-08-03T21:01:01.857Z,11.10
2018-08-03T21:03:30.820Z,12.80
2018-08-03T21:06:00.076Z,11.53
2018-08-03T21:08:28.608Z,13.80
2018-08-03T21:10:57.524Z,12.50
2018-08-03T21:13:26.480Z,11.03
2018-08-03T21:15:55.480Z,10.70
2018-08-03T21:18:24.497Z,11.33
2018-08-03T21:20:54.082Z,13.70
2018-08-03T21:23:22.964Z,10.87
2018-08-03T21:25:52.774Z,11.43
2018-08-03T21:28:21.748Z,11.27
2018-08-03T21:30:50.713Z,11.10
2018-08-03T21:33:19.233Z,12.13
2018-08-03T21:35:48.739Z,11.67
2018-08-03T21:38:17.631Z,11.43
2018-08-03T21:40:47.235Z,11.67
2018-08-03T21:43:16.498Z,11.30
2018-08-03T21:45:45.004Z,11.70
2018-08-03T21:48:13.912Z,11.60
2018-08-03T21:50:42.830Z,12.57
2018-08-03T21:53:11.723Z,44.73
2018-08-03T21:55:41.619Z,60.37
2018-08-03T21:58:10.545Z,16.00
2018-08-03T22:00:39.491Z,12.90
2018-08-03T22:03:08.436Z,12.00
2018-08-03T22:05:36.949Z,11.93
2018-08-03T22:08:05.937Z,12.50
2018-08-03T22:10:34.860Z,15.47
2018-08-03T22:13:04.423Z,12.23
2018-08-03T22:15:33.816Z,11.77
2018-08-03T22:18:02.333Z,11.80
2018-08-03T22:20:31.268Z,12.07
2018-08-03T22:23:00.228Z,12.77
2018-08-03T22:25:29.224Z,13.17
2018-08-03T22:27:58.138Z,11.87
2018-08-03T22:30:27.654Z,13.23
2018-08-03T22:32:57.581Z,11.37
2018-08-03T22:35:27.438Z,11.27
2018-08-03T22:37:56.734Z,11.83
2018-08-03T22:40:26.343Z,11.50
2018-08-03T22:42:55.601Z,12.30
2018-08-03T22:45:24.658Z,12.23
2018-08-03T22:47:53.596Z,14.30
2018-08-03T22:50:22.564Z,11.50
2018-08-03T22:52:51.080Z,11.33
2018-08-03T22:55:20.595Z,12.10
2018-08-03T22:57:50.628Z,12.30
2018-08-03T23:00:19.533Z,12.50
2018-08-03T23:02:48.512Z,11.37
2018-08-03T23:05:17.469Z,11.57
2018-08-03T23:07:46.569Z,19.03
2018-08-03T23:10:15.487Z,82.53
2018-08-03T23:12:44.444Z,49.13
2018-08-03T23:15:13.889Z,12.80
2018-08-03T23:17:43.492Z,13.03
2018-08-03T23:20:13.522Z,12.57
2018-08-03T23:22:42.799Z,14.17
2018-08-03T23:25:11.778Z,13.03
2018-08-03T23:27:40.720Z,11.80
2018-08-03T23:30:10.656Z,12.67
2018-08-03T23:32:39.448Z,12.23
2018-08-03T23:35:08.415Z,11.53
2018-08-03T23:37:37.480Z,11.67
2018-08-03T23:40:06.796Z,12.50
2018-08-03T23:42:36.393Z,11.93
2018-08-03T23:45:06.404Z,12.50
2018-08-03T23:47:36.837Z,12.30
2018-08-03T23:50:12.161Z,12.70
2018-08-03T23:52:41.548Z,11.73
2018-08-03T23:55:10.474Z,11.67
2018-08-03T23:57:39.385Z,11.27
